Time;durP1;ratioP1;P1;durP2;ratioP2;P2;SDS_P1;SDS_P2;PMS_P1;PMS_P2;Temp;Humidity;BMP_temperature;BMP_pressure;BME280_temperature;BME280_humidity;BME280_pressure;Samples;Min_cycle;Max_cycle;Signal;HPM_P1;HPM_P2
2021/12/31 00:00:39;;;;;;;14.63;5.70;;;;;;;;;;4919770;29;20259;-88
2021/12/31 00:03:10;;;;;;;11.10;3.13;;;;;;;;;;4919383;29;20232;-88
2021/12/31 00:05:39;;;;;;;12.10;3.40;;;;;;;;;;4919360;29;20207;-88
2021/12/31 00:08:07;;;;;;;13.30;5.37;;;;;;;;;;4919044;29;20219;-88
2021/12/31 00:10:36;;;;;;;18.67;3.93;;;;;;;;;;4918852;29;20215;-88
2021/12/31 00:13:04;;;;;;;5.07;2.10;;;;;;;;;;4918944;29;20211;-88
2021/12/31 00:15:36;;;;;;;13.27;3.63;;;;;;;;;;4918971;29;20568;-88
2021/12/31 00:18:05;;;;;;;15.63;3.60;;;;;;;;;;4919446;29;20248;-88
2021/12/31 00:20:39;;;;;;;9.87;3.47;;;;;;;;;;4919049;29;20250;-88
2021/12/31 00:23:13;;;;;;;5.70;3.07;;;;;;;;;;4919602;29;20209;-88
2021/12/31 00:25:42;;;;;;;6.00;3.10;;;;;;;;;;4919293;29;20211;-88
2021/12/31 00:28:11;;;;;;;5.10;2.93;;;;;;;;;;4919189;29;20214;-89
2021/12/31 00:30:40;;;;;;;7.53;2.80;;;;;;;;;;4919099;29;20207;-88
2021/12/31 00:33:10;;;;;;;11.53;3.17;;;;;;;;;;4918717;29;20207;-89
2021/12/31 00:35:39;;;;;;;7.73;3.97;;;;;;;;;;4918641;29;20270;-88
2021/12/31 00:38:11;;;;;;;10.70;3.50;;;;;;;;;;4919083;29;20219;-88
2021/12/31 00:40:39;;;;;;;10.03;2.73;;;;;;;;;;4918915;29;20191;-88
2021/12/31 00:43:10;;;;;;;8.20;2.67;;;;;;;;;;4918734;29;20215;-89
2021/12/31 00:45:41;;;;;;;23.17;4.77;;;;;;;;;;4919260;29;20187;-89
2021/12/31 00:48:12;;;;;;;8.90;3.67;;;;;;;;;;4919099;29;20214;-88
2021/12/31 00:50:41;;;;;;;11.77;2.77;;;;;;;;;;4918977;29;20235;-88
2021/12/31 00:53:09;;;;;;;9.37;3.80;;;;;;;;;;4918969;29;20215;-89
2021/12/31 00:55:38;;;;;;;8.53;3.43;;;;;;;;;;4918842;29;20313;-89
2021/12/31 00:58:07;;;;;;;8.93;3.37;;;;;;;;;;4918481;29;20211;-88
2021/12/31 01:00:36;;;;;;;4.77;2.10;;;;;;;;;;4918879;29;20238;-89
2021/12/31 01:03:05;;;;;;;34.97;7.17;;;;;;;;;;4918393;29;20257;-89
2021/12/31 01:05:35;;;;;;;9.20;3.37;;;;;;;;;;4918641;29;20232;-88
2021/12/31 01:08:03;;;;;;;4.47;2.80;;;;;;;;;;4903532;29;20259;-88
2021/12/31 01:10:32;;;;;;;4.57;2.13;;;;;;;;;;4906914;29;20266;-88
2021/12/31 01:13:06;;;;;;;5.30;3.00;;;;;;;;;;4918010;29;20230;-87
2021/12/31 01:15:40;;;;;;;5.57;3.03;;;;;;;;;;4918711;29;20222;-88
2021/12/31 01:18:20;;;;;;;14.37;2.37;;;;;;;;;;4918440;29;20286;-88
2021/12/31 01:20:50;;;;;;;11.07;3.93;;;;;;;;;;4918721;29;20285;-88
2021/12/31 01:23:19;;;;;;;4.90;2.27;;;;;;;;;;4918461;29;20211;-88
2021/12/31 01:25:48;;;;;;;5.17;2.73;;;;;;;;;;4920811;29;20212;-88
2021/12/31 01:28:17;;;;;;;11.30;3.33;;;;;;;;;;4922321;29;20242;-87
2021/12/31 01:30:46;;;;;;;6.00;3.17;;;;;;;;;;4921956;29;20241;-88
2021/12/31 01:33:16;;;;;;;5.80;2.60;;;;;;;;;;4921894;29;20207;-88
2021/12/31 01:35:44;;;;;;;8.60;2.00;;;;;;;;;;4921988;29;20302;-88
2021/12/31 01:38:17;;;;;;;7.97;3.50;;;;;;;;;;4921857;29;20314;-88
2021/12/31 01:40:45;;;;;;;4.50;2.93;;;;;;;;;;4921798;29;20313;-87
2021/12/31 01:43:14;;;;;;;9.97;4.10;;;;;;;;;;4909756;29;20215;-88
2021/12/31 01:45:47;;;;;;;9.43;4.07;;;;;;;;;;4903704;29;20346;-88
2021/12/31 01:48:27;;;;;;;5.83;2.50;;;;;;;;;;4903181;29;20211;-88
2021/12/31 01:50:56;;;;;;;9.50;2.47;;;;;;;;;;4903178;29;20212;-89
2021/12/31 01:53:26;;;;;;;5.53;2.83;;;;;;;;;;4903363;29;20235;-88
2021/12/31 01:55:57;;;;;;;4.93;4.03;;;;;;;;;;4902851;29;20249;-88
2021/12/31 01:58:27;;;;;;;6.93;2.53;;;;;;;;;;4902810;29;20200;-89
2021/12/31 02:00:56;;;;;;;11.80;3.20;;;;;;;;;;4903369;29;20203;-89
2021/12/31 02:03:25;;;;;;;11.80;2.93;;;;;;;;;;4903174;29;20239;-89
2021/12/31 02:05:53;;;;;;;6.40;2.63;;;;;;;;;;4902942;29;20214;-88
2021/12/31 02:08:22;;;;;;;5.33;2.83;;;;;;;;;;4903027;29;20204;-89
2021/12/31 02:10:52;;;;;;;6.50;2.87;;;;;;;;;;4902643;29;20328;-89
2021/12/31 02:13:21;;;;;;;5.33;2.07;;;;;;;;;;4902793;29;20291;-89
2021/12/31 02:15:49;;;;;;;11.37;3.80;;;;;;;;;;4903086;29;20226;-89
2021/12/31 02:18:18;;;;;;;5.33;3.00;;;;;;;;;;4902289;29;20255;-90
2021/12/31 02:20:49;;;;;;;7.07;2.90;;;;;;;;;;4902708;29;20208;-89
2021/12/31 02:23:17;;;;;;;4.57;2.60;;;;;;;;;;4902700;29;20212;-89
2021/12/31 02:25:46;;;;;;;9.60;3.00;;;;;;;;;;4902452;29;20271;-89
2021/12/31 02:28:15;;;;;;;7.63;3.23;;;;;;;;;;4903055;29;20208;-89
2021/12/31 02:30:44;;;;;;;6.10;3.20;;;;;;;;;;4902374;29;20207;-89
2021/12/31 02:33:15;;;;;;;7.60;3.07;;;;;;;;;;4902361;29;20267;-89
2021/12/31 02:35:45;;;;;;;7.17;3.03;;;;;;;;;;4901962;29;20298;-89
2021/12/31 02:38:15;;;;;;;6.53;2.53;;;;;;;;;;4900755;29;20327;-89
2021/12/31 02:40:44;;;;;;;8.23;3.67;;;;;;;;;;4902138;29;20246;-89
2021/12/31 02:43:12;;;;;;;6.30;3.27;;;;;;;;;;4901718;29;20216;-89
2021/12/31 02:45:42;;;;;;;17.83;1.93;;;;;;;;;;4902253;29;20301;-88
2021/12/31 02:48:10;;;;;;;3.63;2.00;;;;;;;;;;4901979;29;20208;-89
2021/12/31 02:50:40;;;;;;;2.40;2.17;;;;;;;;;;4901815;29;20215;-89
2021/12/31 02:53:12;;;;;;;1.17;1.13;;;;;;;;;;4902205;29;20204;-89
2021/12/31 02:55:44;;;;;;;7.63;2.60;;;;;;;;;;4902150;29;20215;-89
2021/12/31 02:58:12;;;;;;;10.67;4.60;;;;;;;;;;4902239;29;20231;-88
2021/12/31 03:00:45;;;;;;;5.47;2.53;;;;;;;;;;4901657;29;20215;-89
2021/12/31 03:03:14;;;;;;;5.37;2.67;;;;;;;;;;4901793;29;20223;-89
2021/12/31 03:05:43;;;;;;;10.03;2.23;;;;;;;;;;4901463;29;20298;-88
2021/12/31 03:08:12;;;;;;;2.63;1.57;;;;;;;;;;4885158;29;20203;-89
2021/12/31 03:10:43;;;;;;;3.23;2.93;;;;;;;;;;4900945;29;20211;-89
2021/12/31 03:13:12;;;;;;;6.97;2.97;;;;;;;;;;4901573;29;20228;-88
2021/12/31 03:15:41;;;;;;;5.97;3.43;;;;;;;;;;4901735;29;20212;-89
2021/12/31 03:18:10;;;;;;;5.17;2.20;;;;;;;;;;4901324;29;20232;-89
2021/12/31 03:20:41;;;;;;;6.47;2.40;;;;;;;;;;4901813;29;20243;-89
2021/12/31 03:23:10;;;;;;;9.90;3.67;;;;;;;;;;4901386;29;20208;-89
2021/12/31 03:25:41;;;;;;;6.20;1.50;;;;;;;;;;4901742;29;20240;-89
2021/12/31 03:28:11;;;;;;;8.17;3.40;;;;;;;;;;4901118;29;20232;-89
2021/12/31 03:30:39;;;;;;;6.43;2.53;;;;;;;;;;4901401;29;20216;-88
2021/12/31 03:33:08;;;;;;;4.10;2.67;;;;;;;;;;4901560;29;20220;-89
2021/12/31 03:35:36;;;;;;;7.63;1.77;;;;;;;;;;4901289;29;20284;-89
2021/12/31 03:38:05;;;;;;;6.17;2.40;;;;;;;;;;4900517;29;20304;-89
2021/12/31 03:40:33;;;;;;;3.87;2.30;;;;;;;;;;4900963;29;20284;-89
2021/12/31 03:43:02;;;;;;;5.37;2.77;;;;;;;;;;4900675;29;20254;-89
2021/12/31 03:45:32;;;;;;;9.23;2.43;;;;;;;;;;4900981;29;20208;-89
2021/12/31 03:48:01;;;;;;;3.57;2.00;;;;;;;;;;4901265;29;20198;-89
2021/12/31 03:50:29;;;;;;;3.33;1.80;;;;;;;;;;4901103;29;20208;-89
2021/12/31 03:52:57;;;;;;;7.70;2.07;;;;;;;;;;4900832;29;20216;-89
2021/12/31 03:55:26;;;;;;;9.33;3.93;;;;;;;;;;4900535;29;20206;-89
2021/12/31 03:57:54;;;;;;;10.93;3.00;;;;;;;;;;4900405;29;20279;-89
2021/12/31 04:00:23;;;;;;;11.67;2.57;;;;;;;;;;4900830;29;20359;-88
2021/12/31 04:02:53;;;;;;;7.50;3.33;;;;;;;;;;4892899;29;20228;-89
2021/12/31 04:05:21;;;;;;;5.13;2.73;;;;;;;;;;4900845;29;20213;-88
2021/12/31 04:07:50;;;;;;;3.90;2.80;;;;;;;;;;4900632;29;20228;-89
2021/12/31 04:10:18;;;;;;;4.20;1.80;;;;;;;;;;4900416;29;20216;-88
2021/12/31 04:12:46;;;;;;;2.60;2.33;;;;;;;;;;4900298;29;20331;-89
2021/12/31 04:15:15;;;;;;;3.30;2.30;;;;;;;;;;4900587;29;20235;-89
2021/12/31 04:17:43;;;;;;;3.33;1.50;;;;;;;;;;4900445;29;20251;-89
2021/12/31 04:20:19;;;;;;;2.77;2.00;;;;;;;;;;4900381;29;20211;-89
2021/12/31 04:22:53;;;;;;;3.60;1.97;;;;;;;;;;4900444;29;20227;-89
2021/12/31 04:25:22;;;;;;;3.53;2.37;;;;;;;;;;4900157;29;20233;-88
2021/12/31 04:27:53;;;;;;;3.90;2.40;;;;;;;;;;4900497;29;20214;-88
2021/12/31 04:30:21;;;;;;;2.17;1.40;;;;;;;;;;4899932;29;20219;-89
2021/12/31 04:32:50;;;;;;;4.47;2.30;;;;;;;;;;4900084;29;20208;-88
2021/12/31 04:35:20;;;;;;;7.87;3.00;;;;;;;;;;4899631;29;20299;-87
2021/12/31 04:37:48;;;;;;;7.93;2.27;;;;;;;;;;4898984;29;20330;-88
2021/12/31 04:40:17;;;;;;;6.03;2.57;;;;;;;;;;4900225;29;20238;-89
2021/12/31 04:42:46;;;;;;;7.43;2.70;;;;;;;;;;4899829;29;20219;-89
2021/12/31 04:45:15;;;;;;;4.37;2.10;;;;;;;;;;4900456;29;20209;-89
2021/12/31 04:47:43;;;;;;;4.03;3.10;;;;;;;;;;4900120;29;20276;-89
2021/12/31 04:50:12;;;;;;;3.10;2.03;;;;;;;;;;4900297;29;20269;-89
2021/12/31 04:52:42;;;;;;;4.13;1.80;;;;;;;;;;4899794;29;20243;-89
2021/12/31 04:55:11;;;;;;;2.17;1.77;;;;;;;;;;4899695;29;20217;-88
2021/12/31 04:57:42;;;;;;;3.93;2.73;;;;;;;;;;4899822;29;20236;-88
2021/12/31 05:00:13;;;;;;;2.53;1.57;;;;;;;;;;4899792;29;20305;-88
2021/12/31 05:02:41;;;;;;;2.80;1.80;;;;;;;;;;4899838;29;20204;-88
2021/12/31 05:05:10;;;;;;;3.93;1.60;;;;;;;;;;4899922;29;20213;-88
2021/12/31 05:07:38;;;;;;;2.33;1.63;;;;;;;;;;4899349;29;20210;-88
2021/12/31 05:10:09;;;;;;;1.97;1.73;;;;;;;;;;4899869;29;20216;-88
2021/12/31 05:12:38;;;;;;;4.00;2.00;;;;;;;;;;4899829;29;20274;-89
2021/12/31 05:15:08;;;;;;;8.73;2.70;;;;;;;;;;4899720;29;20260;-89
2021/12/31 05:17:37;;;;;;;6.23;1.83;;;;;;;;;;4899325;29;20204;-89
2021/12/31 05:20:07;;;;;;;3.50;2.20;;;;;;;;;;4899573;29;20266;-89
2021/12/31 05:22:36;;;;;;;2.03;1.77;;;;;;;;;;4899779;29;20217;-89
2021/12/31 05:25:04;;;;;;;2.23;2.03;;;;;;;;;;4899436;29;20208;-88
2021/12/31 05:27:34;;;;;;;1.57;1.40;;;;;;;;;;4899824;29;20212;-89
2021/12/31 05:30:03;;;;;;;2.67;1.90;;;;;;;;;;4899518;29;20238;-88
2021/12/31 05:32:31;;;;;;;3.83;2.13;;;;;;;;;;4899776;29;20216;-88
2021/12/31 05:35:00;;;;;;;2.47;1.83;;;;;;;;;;4899659;29;20251;-88
2021/12/31 05:37:28;;;;;;;5.37;1.60;;;;;;;;;;4899257;29;20272;-88
2021/12/31 05:39:56;;;;;;;3.67;1.27;;;;;;;;;;4899488;29;20300;-88
2021/12/31 05:42:25;;;;;;;3.00;1.93;;;;;;;;;;4899482;29;20213;-88
2021/12/31 05:44:56;;;;;;;6.47;3.20;;;;;;;;;;4899207;29;20239;-88
2021/12/31 05:47:25;;;;;;;1.87;1.57;;;;;;;;;;4899826;29;20219;-88
2021/12/31 05:49:56;;;;;;;6.43;2.03;;;;;;;;;;4899408;29;20209;-88
2021/12/31 05:52:24;;;;;;;6.47;2.30;;;;;;;;;;4899163;29;20211;-88
2021/12/31 05:54:53;;;;;;;1.93;1.37;;;;;;;;;;4899742;29;20236;-89
2021/12/31 05:57:21;;;;;;;3.50;2.03;;;;;;;;;;4899949;29;20277;-88
2021/12/31 05:59:50;;;;;;;8.83;2.03;;;;;;;;;;4898736;29;20314;-87
2021/12/31 06:02:19;;;;;;;3.93;2.00;;;;;;;;;;4899067;29;20235;-88
2021/12/31 06:04:48;;;;;;;3.50;1.73;;;;;;;;;;4899787;29;20204;-88
2021/12/31 06:07:17;;;;;;;5.53;1.60;;;;;;;;;;4899409;29;20253;-85
2021/12/31 06:09:45;;;;;;;5.57;2.53;;;;;;;;;;4899548;29;20228;-88
2021/12/31 06:12:14;;;;;;;5.57;2.80;;;;;;;;;;4900315;29;20211;-88
2021/12/31 06:14:42;;;;;;;4.70;2.33;;;;;;;;;;4903203;29;20211;-88
2021/12/31 06:17:11;;;;;;;4.87;1.97;;;;;;;;;;4902548;29;20232;-88
2021/12/31 06:19:41;;;;;;;4.17;2.40;;;;;;;;;;4902723;29;20292;-88
2021/12/31 06:22:11;;;;;;;3.90;2.03;;;;;;;;;;4902668;29;20241;-88
2021/12/31 06:24:41;;;;;;;5.60;2.27;;;;;;;;;;4902389;29;20205;-88
2021/12/31 06:27:09;;;;;;;4.63;2.13;;;;;;;;;;4902713;29;20248;-88
2021/12/31 06:29:38;;;;;;;3.40;1.77;;;;;;;;;;4902790;29;20212;-88
2021/12/31 06:32:06;;;;;;;2.30;1.57;;;;;;;;;;4902765;29;20377;-88
2021/12/31 06:34:38;;;;;;;2.70;2.10;;;;;;;;;;4902437;29;20290;-88
2021/12/31 06:37:08;;;;;;;7.93;2.70;;;;;;;;;;4902179;29;20292;-88
2021/12/31 06:39:37;;;;;;;2.97;2.63;;;;;;;;;;4902243;29;20239;-88
2021/12/31 06:42:07;;;;;;;3.80;2.50;;;;;;;;;;4902160;29;20208;-88
2021/12/31 06:44:36;;;;;;;5.80;2.03;;;;;;;;;;4902306;29;20207;-88
2021/12/31 06:47:05;;;;;;;6.43;2.37;;;;;;;;;;4902342;29;20212;-88
2021/12/31 06:49:34;;;;;;;2.63;2.10;;;;;;;;;;4902396;29;20229;-88
2021/12/31 06:52:02;;;;;;;4.00;2.23;;;;;;;;;;4902115;29;20299;-88
2021/12/31 06:54:32;;;;;;;4.23;2.63;;;;;;;;;;4902319;29;20288;-87
2021/12/31 06:57:01;;;;;;;3.27;2.33;;;;;;;;;;4901874;29;20208;-88
2021/12/31 06:59:31;;;;;;;2.93;1.97;;;;;;;;;;4902156;29;20258;-90
2021/12/31 07:02:00;;;;;;;5.57;2.07;;;;;;;;;;4901692;29;20207;-88
2021/12/31 07:04:29;;;;;;;2.30;1.57;;;;;;;;;;4901754;29;20231;-87
2021/12/31 07:06:57;;;;;;;2.93;2.07;;;;;;;;;;4902035;29;20243;-88
2021/12/31 07:09:30;;;;;;;6.53;2.47;;;;;;;;;;4902024;29;20189;-89
2021/12/31 07:12:00;;;;;;;3.30;2.60;;;;;;;;;;4901584;29;20215;-88
2021/12/31 07:14:28;;;;;;;5.67;2.13;;;;;;;;;;4901560;29;20212;-88
2021/12/31 07:16:57;;;;;;;2.20;1.67;;;;;;;;;;4901367;29;20214;-88
2021/12/31 07:19:26;;;;;;;2.50;1.53;;;;;;;;;;4901488;29;20259;-88
2021/12/31 07:21:54;;;;;;;3.37;2.43;;;;;;;;;;4901235;29;20272;-88
2021/12/31 07:24:23;;;;;;;1.73;1.57;;;;;;;;;;4900408;29;20275;-88
2021/12/31 07:26:51;;;;;;;3.23;1.77;;;;;;;;;;4900634;29;20211;-88
2021/12/31 07:29:21;;;;;;;2.60;1.67;;;;;;;;;;4901615;29;20215;-88
2021/12/31 07:31:50;;;;;;;3.47;2.27;;;;;;;;;;4901154;29;20217;-88
2021/12/31 07:34:18;;;;;;;2.33;2.00;;;;;;;;;;4901544;29;20215;-88
2021/12/31 07:36:46;;;;;;;5.30;1.70;;;;;;;;;;4900608;29;20267;-88
2021/12/31 07:39:20;;;;;;;2.13;1.77;;;;;;;;;;4900798;29;20212;-87
2021/12/31 07:41:49;;;;;;;3.67;3.27;;;;;;;;;;4901016;29;20192;-88
2021/12/31 07:44:17;;;;;;;7.17;3.20;;;;;;;;;;4901579;29;20248;-88
2021/12/31 07:46:47;;;;;;;3.67;2.17;;;;;;;;;;4901458;29;20211;-88
2021/12/31 07:49:16;;;;;;;1.90;1.67;;;;;;;;;;4901368;29;20248;-88
2021/12/31 07:51:44;;;;;;;2.43;1.40;;;;;;;;;;4901377;29;20211;-88
2021/12/31 07:54:12;;;;;;;7.30;2.20;;;;;;;;;;4901228;29;20239;-89
2021/12/31 08:28:35;;;;;;;4.07;1.97;;;;;;;;;;4755688;29;20202;-87
2021/12/31 08:31:37;;;;;;;5.10;2.80;;;;;;;;;;4806424;29;20331;-88
2021/12/31 08:34:46;;;;;;;3.67;2.07;;;;;;;;;;4793885;29;20215;-88
2021/12/31 08:37:50;;;;;;;2.67;2.00;;;;;;;;;;4832625;29;20306;-88
2021/12/31 08:43:24;;;;;;;4.83;2.00;;;;;;;;;;4815195;29;20221;-88
2021/12/31 08:50:30;;;;;;;4.00;2.70;;;;;;;;;;4882742;29;20212;-88
2021/12/31 08:53:40;;;;;;;8.40;2.90;;;;;;;;;;4900518;29;20251;-88
2021/12/31 08:56:40;;;;;;;3.87;1.87;;;;;;;;;;4873637;29;20212;-88
2021/12/31 09:02:40;;;;;;;6.83;3.87;;;;;;;;;;4900092;29;20239;-88
2021/12/31 09:05:55;;;;;;;18.80;7.93;;;;;;;;;;4892482;29;20207;-88
2021/12/31 09:09:06;;;;;;;5.17;2.20;;;;;;;;;;4900211;29;20219;-87
2021/12/31 09:22:33;;;;;;;2.30;1.70;;;;;;;;;;4839944;29;20218;-87
2021/12/31 11:03:51;;;;;;;9.57;3.23;;;;;;;;;;4736060;30;20294;-89
2021/12/31 11:07:25;;;;;;;;;;;;;;;;;;;;;
2021/12/31 11:14:51;;;;;;;6.50;1.97;;;;;;;;;;4658492;30;20224;-88
2021/12/31 13:37:50;;;;;;;11.93;2.97;;;;;;;;;;4741523;30;20228;-88
2021/12/31 13:41:19;;;;;;;4.23;2.20;;;;;;;;;;4753341;30;20240;-88
2021/12/31 14:12:51;;;;;;;14.57;4.43;;;;;;;;;;4718849;30;20257;-88
2021/12/31 14:15:26;;;;;;;17.67;5.67;;;;;;;;;;4718562;30;20300;-85
2021/12/31 14:18:01;;;;;;;11.10;4.40;;;;;;;;;;4761621;29;20242;-86
2021/12/31 14:59:14;;;;;;;10.17;2.50;;;;;;;;;;4716452;30;20231;-88
2021/12/31 15:01:43;;;;;;;7.93;4.57;;;;;;;;;;4788821;29;20265;-89
2021/12/31 15:04:11;;;;;;;10.60;6.03;;;;;;;;;;4887993;29;20251;-88
2021/12/31 15:06:40;;;;;;;12.47;3.40;;;;;;;;;;4901196;29;20286;-89
2021/12/31 15:09:08;;;;;;;10.00;3.77;;;;;;;;;;4900681;29;20208;-88
2021/12/31 15:11:37;;;;;;;7.10;3.27;;;;;;;;;;4900754;29;20259;-88
2021/12/31 15:14:05;;;;;;;12.50;4.07;;;;;;;;;;4900839;29;20216;-89
2021/12/31 15:16:35;;;;;;;11.47;5.50;;;;;;;;;;4900391;29;20208;-88
2021/12/31 15:19:06;;;;;;;11.37;5.43;;;;;;;;;;4901192;29;20204;-89
2021/12/31 15:21:36;;;;;;;12.57;3.53;;;;;;;;;;4900791;29;20231;-88
2021/12/31 15:24:04;;;;;;;14.80;5.33;;;;;;;;;;4900713;29;20277;-89
2021/12/31 15:26:33;;;;;;;15.53;4.77;;;;;;;;;;4900418;29;20215;-88
2021/12/31 15:29:02;;;;;;;19.30;4.87;;;;;;;;;;4900858;29;20215;-89
2021/12/31 15:31:30;;;;;;;9.37;3.97;;;;;;;;;;4900120;29;20227;-89
2021/12/31 15:34:00;;;;;;;15.63;5.30;;;;;;;;;;4900147;29;20212;-89
2021/12/31 15:36:29;;;;;;;9.37;4.03;;;;;;;;;;4900895;29;20204;-88
2021/12/31 15:38:57;;;;;;;9.00;3.60;;;;;;;;;;4900455;29;20212;-89
2021/12/31 15:41:26;;;;;;;12.40;7.03;;;;;;;;;;4900211;29;20255;-89
2021/12/31 15:43:55;;;;;;;5.73;5.03;;;;;;;;;;4899966;29;20208;-89
2021/12/31 15:46:23;;;;;;;16.93;6.13;;;;;;;;;;4900173;29;20228;-88
2021/12/31 15:48:52;;;;;;;15.27;4.83;;;;;;;;;;4899920;29;20223;-89
2021/12/31 15:51:22;;;;;;;13.40;5.00;;;;;;;;;;4899942;29;20211;-89
2021/12/31 15:53:50;;;;;;;10.87;5.80;;;;;;;;;;4899688;29;20260;-89
2021/12/31 15:56:19;;;;;;;20.87;6.60;;;;;;;;;;4900209;29;20275;-89
2021/12/31 15:58:49;;;;;;;18.50;6.10;;;;;;;;;;4899815;29;20235;-89
2021/12/31 16:01:17;;;;;;;9.37;5.70;;;;;;;;;;4899739;29;20327;-89
2021/12/31 16:03:46;;;;;;;13.07;5.07;;;;;;;;;;4899493;29;20247;-89
2021/12/31 16:06:14;;;;;;;17.33;6.70;;;;;;;;;;4899541;29;20243;-89
2021/12/31 16:08:44;;;;;;;23.50;6.80;;;;;;;;;;4899578;29;20268;-89
2021/12/31 16:11:12;;;;;;;10.13;4.47;;;;;;;;;;4899620;29;20212;-89
2021/12/31 16:13:41;;;;;;;22.80;9.67;;;;;;;;;;4899246;29;20212;-89
2021/12/31 16:16:09;;;;;;;21.77;7.47;;;;;;;;;;4903003;29;20207;-89
2021/12/31 16:18:38;;;;;;;14.13;5.63;;;;;;;;;;4918416;29;20211;-89
2021/12/31 16:21:07;;;;;;;14.97;6.93;;;;;;;;;;4918339;29;20210;-89
2021/12/31 16:23:35;;;;;;;26.53;7.97;;;;;;;;;;4918160;29;20238;-89
2021/12/31 16:26:05;;;;;;;11.77;6.17;;;;;;;;;;4918128;29;20266;-89
2021/12/31 16:28:33;;;;;;;17.10;5.57;;;;;;;;;;4918426;29;20211;-89
2021/12/31 16:31:03;;;;;;;15.87;6.30;;;;;;;;;;4917892;29;20286;-89
2021/12/31 16:33:34;;;;;;;17.57;3.57;;;;;;;;;;4918317;29;20258;-89
2021/12/31 16:36:03;;;;;;;17.13;5.37;;;;;;;;;;4917989;29;20263;-89
2021/12/31 16:38:31;;;;;;;20.93;5.40;;;;;;;;;;4917774;29;20214;-89
2021/12/31 16:41:00;;;;;;;16.33;4.20;;;;;;;;;;4917503;29;20203;-89
2021/12/31 16:43:30;;;;;;;11.77;4.93;;;;;;;;;;4917827;29;20235;-89
2021/12/31 16:45:59;;;;;;;16.63;6.03;;;;;;;;;;4917917;29;20258;-89
2021/12/31 16:48:28;;;;;;;18.53;6.80;;;;;;;;;;4917882;29;20210;-89
2021/12/31 16:50:56;;;;;;;22.43;5.47;;;;;;;;;;4917733;29;20210;-85
2021/12/31 16:53:25;;;;;;;7.70;4.10;;;;;;;;;;4917611;29;20211;-89
2021/12/31 16:55:53;;;;;;;10.63;4.47;;;;;;;;;;4916872;29;20207;-89
2021/12/31 16:58:22;;;;;;;16.20;5.93;;;;;;;;;;4917547;29;20310;-89
2021/12/31 17:00:52;;;;;;;22.47;5.13;;;;;;;;;;4917701;29;20202;-89
2021/12/31 17:03:20;;;;;;;28.03;6.00;;;;;;;;;;4917376;29;20234;-89
2021/12/31 17:05:49;;;;;;;25.37;6.60;;;;;;;;;;4917534;29;20317;-89
2021/12/31 17:08:18;;;;;;;14.93;5.07;;;;;;;;;;4917904;29;20227;-89
2021/12/31 17:10:46;;;;;;;20.73;7.50;;;;;;;;;;4917853;29;20210;-89
2021/12/31 17:13:15;;;;;;;9.33;3.67;;;;;;;;;;4917654;29;20279;-89
2021/12/31 17:15:45;;;;;;;30.53;7.97;;;;;;;;;;4917714;29;20258;-89
2021/12/31 17:18:15;;;;;;;18.30;9.07;;;;;;;;;;4880198;29;20301;-89
2021/12/31 17:20:44;;;;;;;23.80;8.53;;;;;;;;;;4880529;29;20204;-89
2021/12/31 17:23:12;;;;;;;11.73;5.17;;;;;;;;;;4879818;29;20251;-89
2021/12/31 17:25:41;;;;;;;19.70;7.63;;;;;;;;;;4880046;29;20216;-89
2021/12/31 17:28:09;;;;;;;11.93;4.30;;;;;;;;;;4880037;29;20233;-89
2021/12/31 17:30:38;;;;;;;12.10;4.73;;;;;;;;;;4880354;29;20204;-89
2021/12/31 17:33:06;;;;;;;15.40;5.80;;;;;;;;;;4879893;29;20236;-89
2021/12/31 17:35:36;;;;;;;29.37;8.57;;;;;;;;;;4880060;29;20243;-89
2021/12/31 17:38:04;;;;;;;8.10;3.87;;;;;;;;;;4879582;29;20239;-89
2021/12/31 17:40:33;;;;;;;12.30;4.93;;;;;;;;;;4879522;29;20232;-89
2021/12/31 17:43:01;;;;;;;13.97;4.93;;;;;;;;;;4879772;29;20280;-89
2021/12/31 17:45:30;;;;;;;16.43;6.17;;;;;;;;;;4880019;29;20255;-90
2021/12/31 17:47:59;;;;;;;18.17;6.07;;;;;;;;;;4879822;29;20276;-89
2021/12/31 17:50:27;;;;;;;11.47;5.30;;;;;;;;;;4880036;29;20212;-89
2021/12/31 17:52:57;;;;;;;28.53;7.37;;;;;;;;;;4879758;29;20234;-89
2021/12/31 17:55:26;;;;;;;17.33;6.10;;;;;;;;;;4880080;29;20217;-89
2021/12/31 17:57:55;;;;;;;8.67;3.57;;;;;;;;;;4879755;29;20304;-89
2021/12/31 18:00:24;;;;;;;15.93;6.70;;;;;;;;;;4879827;29;20216;-89
2021/12/31 18:02:53;;;;;;;27.67;8.83;;;;;;;;;;4879522;29;20274;-89
2021/12/31 18:05:21;;;;;;;14.73;6.37;;;;;;;;;;4879165;29;20265;-88
2021/12/31 18:07:50;;;;;;;12.90;6.40;;;;;;;;;;4882009;29;20232;-89
2021/12/31 18:10:21;;;;;;;14.30;6.43;;;;;;;;;;4883205;29;20236;-89
2021/12/31 18:12:49;;;;;;;31.03;6.83;;;;;;;;;;4883313;29;20200;-89
2021/12/31 18:15:18;;;;;;;19.87;9.83;;;;;;;;;;4882958;29;20216;-89
2021/12/31 18:17:46;;;;;;;22.47;10.77;;;;;;;;;;4898816;29;20207;-89
2021/12/31 18:20:15;;;;;;;19.67;9.60;;;;;;;;;;4901491;29;20231;-89
2021/12/31 18:22:43;;;;;;;23.20;8.83;;;;;;;;;;4900742;29;20251;-89
2021/12/31 18:25:12;;;;;;;15.97;8.23;;;;;;;;;;4901605;29;20219;-89
2021/12/31 18:27:42;;;;;;;21.63;9.53;;;;;;;;;;4901732;29;20252;-89
2021/12/31 18:30:11;;;;;;;17.23;8.43;;;;;;;;;;4901640;29;20235;-89
2021/12/31 18:32:40;;;;;;;22.63;7.77;;;;;;;;;;4901742;29;20216;-89
2021/12/31 18:35:09;;;;;;;9.70;5.70;;;;;;;;;;4901250;29;20263;-88
2021/12/31 18:37:37;;;;;;;15.10;8.90;;;;;;;;;;4901299;29;20263;-89
2021/12/31 18:40:07;;;;;;;13.00;6.73;;;;;;;;;;4901338;29;20259;-89
2021/12/31 18:42:35;;;;;;;23.27;10.37;;;;;;;;;;4901196;29;20294;-89
2021/12/31 18:45:05;;;;;;;17.70;9.37;;;;;;;;;;4901455;29;20211;-89
2021/12/31 18:47:46;;;;;;;16.07;9.57;;;;;;;;;;4901536;29;20192;-89
2021/12/31 18:50:21;;;;;;;17.80;9.00;;;;;;;;;;4901229;29;20219;-89
2021/12/31 18:52:49;;;;;;;20.53;10.47;;;;;;;;;;4901177;29;20215;-89
2021/12/31 18:55:18;;;;;;;18.30;7.33;;;;;;;;;;4901198;29;20219;-89
2021/12/31 18:57:46;;;;;;;21.07;11.57;;;;;;;;;;4901262;29;20279;-89
2021/12/31 19:00:17;;;;;;;27.90;10.70;;;;;;;;;;4900892;29;20207;-89
2021/12/31 19:02:45;;;;;;;29.67;13.60;;;;;;;;;;4900806;29;20232;-89
2021/12/31 19:05:14;;;;;;;25.80;8.77;;;;;;;;;;4900645;29;20273;-89
2021/12/31 19:07:42;;;;;;;28.77;11.37;;;;;;;;;;4900906;29;20238;-89
2021/12/31 19:10:11;;;;;;;16.80;10.93;;;;;;;;;;4900901;29;20208;-89
2021/12/31 19:12:40;;;;;;;36.50;12.10;;;;;;;;;;4900690;29;20227;-89
2021/12/31 19:15:08;;;;;;;36.80;14.00;;;;;;;;;;4900569;29;20239;-89
2021/12/31 19:17:38;;;;;;;13.50;7.00;;;;;;;;;;4900232;29;20239;-89
2021/12/31 19:20:07;;;;;;;23.87;13.33;;;;;;;;;;4900070;29;20207;-89
2021/12/31 19:22:36;;;;;;;10.97;6.10;;;;;;;;;;4900224;29;20238;-89
2021/12/31 19:25:04;;;;;;;24.40;11.27;;;;;;;;;;4900178;29;20272;-89
2021/12/31 19:27:33;;;;;;;23.43;11.67;;;;;;;;;;4899969;29;20263;-89
2021/12/31 19:30:01;;;;;;;17.07;10.20;;;;;;;;;;4900043;29;20211;-89
2021/12/31 19:32:30;;;;;;;15.13;8.37;;;;;;;;;;4900058;29;20220;-89
2021/12/31 19:35:00;;;;;;;32.40;12.67;;;;;;;;;;4900162;29;20204;-89
2021/12/31 19:37:29;;;;;;;24.40;11.80;;;;;;;;;;4900621;29;20223;-88
2021/12/31 19:39:57;;;;;;;29.50;10.50;;;;;;;;;;4900054;29;20229;-89
2021/12/31 19:42:25;;;;;;;20.17;11.23;;;;;;;;;;4899967;29;20267;-89
2021/12/31 19:44:54;;;;;;;17.00;7.10;;;;;;;;;;4899842;29;20279;-89
2021/12/31 19:47:22;;;;;;;37.97;14.77;;;;;;;;;;4900118;29;20212;-89
2021/12/31 19:49:51;;;;;;;9.50;6.33;;;;;;;;;;4899884;29;20208;-89
2021/12/31 19:52:22;;;;;;;17.77;7.60;;;;;;;;;;4899623;29;20218;-89
2021/12/31 19:54:50;;;;;;;12.50;5.97;;;;;;;;;;4899727;29;20204;-89
2021/12/31 19:57:19;;;;;;;41.00;18.53;;;;;;;;;;4899724;29;20239;-89
2021/12/31 19:59:47;;;;;;;25.90;11.17;;;;;;;;;;4899724;29;20212;-89
2021/12/31 20:02:19;;;;;;;15.33;6.77;;;;;;;;;;4899834;29;20204;-89
2021/12/31 20:04:48;;;;;;;11.63;6.20;;;;;;;;;;4899258;29;20296;-89
2021/12/31 20:07:16;;;;;;;14.33;7.43;;;;;;;;;;4899502;29;20227;-89
2021/12/31 20:09:46;;;;;;;22.27;10.33;;;;;;;;;;4899486;29;20211;-89
2021/12/31 20:12:15;;;;;;;11.53;6.10;;;;;;;;;;4899638;29;20227;-89
2021/12/31 20:14:43;;;;;;;14.27;8.57;;;;;;;;;;4899535;29;20208;-89
2021/12/31 20:17:12;;;;;;;11.40;5.13;;;;;;;;;;4899385;29;20219;-89
2021/12/31 20:19:40;;;;;;;19.53;10.20;;;;;;;;;;4899574;29;20215;-89
2021/12/31 20:22:09;;;;;;;22.73;7.60;;;;;;;;;;4899552;29;20215;-89
2021/12/31 20:24:37;;;;;;;11.80;7.90;;;;;;;;;;4899241;29;20269;-89
2021/12/31 20:27:07;;;;;;;13.10;7.60;;;;;;;;;;4899351;29;20236;-89
2021/12/31 20:29:36;;;;;;;18.53;8.17;;;;;;;;;;4898897;29;20301;-89
2021/12/31 20:32:06;;;;;;;11.83;6.30;;;;;;;;;;4898203;29;20199;-89
2021/12/31 20:34:35;;;;;;;16.77;10.53;;;;;;;;;;4899123;29;20210;-88
2021/12/31 20:37:04;;;;;;;15.10;6.73;;;;;;;;;;4899209;29;20272;-89
2021/12/31 20:39:33;;;;;;;16.53;9.43;;;;;;;;;;4899177;29;20214;-89
2021/12/31 20:42:01;;;;;;;12.03;6.47;;;;;;;;;;4898847;29;20244;-89
2021/12/31 20:44:31;;;;;;;12.33;6.67;;;;;;;;;;4898818;29;20283;-89
2021/12/31 20:47:00;;;;;;;24.50;11.30;;;;;;;;;;4898828;29;20207;-89
2021/12/31 20:49:28;;;;;;;12.67;6.33;;;;;;;;;;4899189;29;20208;-89
2021/12/31 20:51:56;;;;;;;7.10;5.60;;;;;;;;;;4892025;29;20286;-89
2021/12/31 20:54:26;;;;;;;25.67;10.57;;;;;;;;;;4899220;29;20203;-89
2021/12/31 20:56:56;;;;;;;20.87;9.57;;;;;;;;;;4898778;29;20208;-89
2021/12/31 20:59:25;;;;;;;26.27;11.00;;;;;;;;;;4898844;29;20263;-89